createdAt,value
2023-01-02T00:01:25.542Z,97675.91
2023-01-02T00:03:53.882Z,97676.38
2023-01-02T00:06:20.132Z,97681.75
2023-01-02T00:08:46.345Z,97663.81
2023-01-02T00:11:12.532Z,97658.59
2023-01-02T00:13:38.814Z,97655.38
2023-01-02T00:16:05.237Z,97658.88
2023-01-02T00:18:31.492Z,97674.09
2023-01-02T00:21:01.635Z,97677.44
2023-01-02T00:23:27.857Z,97676.69
2023-01-02T00:25:54.075Z,97656.63
2023-01-02T00:28:20.306Z,97645.53
2023-01-02T00:30:46.507Z,97609.56
2023-01-02T00:33:12.744Z,97608.59
2023-01-02T00:35:38.967Z,97609.81
2023-01-02T00:38:05.327Z,97608.59
2023-01-02T00:40:31.524Z,97605.56
2023-01-02T00:42:57.737Z,97582.88
2023-01-02T00:45:23.935Z,97570.94
2023-01-02T00:47:50.193Z,97548.69
2023-01-02T00:50:16.389Z,97546.25
2023-01-02T00:52:42.609Z,97507.03
2023-01-02T00:55:08.999Z,97489.25
2023-01-02T00:57:35.226Z,97490.94
2023-01-02T01:00:01.502Z,97498.56
2023-01-02T01:02:27.820Z,97521.69
2023-01-02T01:04:54.161Z,97536.41
2023-01-02T01:07:20.450Z,97548.38
2023-01-02T01:09:46.733Z,97554.50
2023-01-02T01:12:12.927Z,97567.06
2023-01-02T01:14:39.151Z,97577.94
2023-01-02T01:17:05.345Z,97590.50
2023-01-02T01:19:31.920Z,97586.25
2023-01-02T01:21:58.115Z,97508.13
2023-01-02T01:24:24.345Z,97416.06
2023-01-02T01:26:50.576Z,97336.72
2023-01-02T01:29:16.788Z,97255.56
2023-01-02T01:31:43.073Z,97157.34
2023-01-02T01:34:11.309Z,97073.03
2023-01-02T01:36:37.507Z,97002.28
2023-01-02T01:39:03.738Z,96952.78
2023-01-02T01:41:29.961Z,96875.97
2023-01-02T01:43:56.729Z,96816.50
2023-01-02T01:46:25.926Z,96738.81
2023-01-02T01:48:54.471Z,96680.34
2023-01-02T01:51:20.736Z,96626.19
2023-01-02T01:53:46.955Z,96603.19
2023-01-02T01:56:13.161Z,96587.63
2023-01-02T01:58:40.600Z,96564.03
2023-01-02T02:01:06.853Z,96587.13
2023-01-02T02:03:33.313Z,96599.22
2023-01-02T02:05:59.510Z,96600.72
2023-01-02T02:08:46.281Z,96596.59
2023-01-02T02:11:12.650Z,96601.81
2023-01-02T02:13:38.881Z,96606.59
2023-01-02T02:16:08.450Z,96579.31
2023-01-02T02:18:42.608Z,96538.84
2023-01-02T02:21:11.833Z,96503.19
2023-01-02T02:23:52.316Z,96510.63
2023-01-02T02:26:37.351Z,96511.44
2023-01-02T02:29:27.567Z,96505.00
2023-01-02T02:32:06.935Z,96476.75
2023-01-02T02:34:35.838Z,96433.63
2023-01-02T02:37:05.464Z,96406.28
2023-01-02T02:39:46.535Z,96418.66
2023-01-02T02:42:19.691Z,96449.66
2023-01-02T02:44:53.827Z,96447.81
2023-01-02T02:47:33.821Z,96470.41
2023-01-02T02:50:05.505Z,96404.47
2023-01-02T02:52:33.019Z,96370.28
2023-01-02T02:55:07.068Z,96338.25
2023-01-02T02:57:33.275Z,96298.44
2023-01-02T02:59:59.489Z,96272.81
2023-01-02T03:02:25.818Z,96262.31
2023-01-02T03:04:53.542Z,96217.38
2023-01-02T03:07:34.708Z,96190.50
2023-01-02T03:10:09.556Z,96133.00
2023-01-02T03:12:54.625Z,96126.22
2023-01-02T03:15:20.797Z,96121.75
2023-01-02T03:18:05.555Z,96100.94
2023-01-02T03:20:41.400Z,96085.31
2023-01-02T03:23:09.993Z,96070.44
2023-01-02T03:25:36.219Z,96033.63
2023-01-02T03:28:03.636Z,96017.53
2023-01-02T03:30:29.914Z,95988.59
2023-01-02T03:33:02.084Z,95963.34
2023-01-02T03:35:29.109Z,95931.41
2023-01-02T03:37:56.231Z,95938.81
2023-01-02T03:40:24.043Z,95925.03
2023-01-02T03:42:52.053Z,95926.84
2023-01-02T03:45:20.667Z,95910.84
2023-01-02T03:47:49.938Z,95899.00
2023-01-02T03:50:18.022Z,95877.81
2023-01-02T03:52:44.247Z,95842.91
2023-01-02T03:55:10.458Z,95866.75
2023-01-02T03:57:58.773Z,95890.13
2023-01-02T04:00:25.171Z,95902.75
2023-01-02T04:02:55.371Z,95898.78
2023-01-02T04:05:41.853Z,95924.09
2023-01-02T04:08:09.978Z,95931.91
2023-01-02T04:10:37.064Z,95927.44
2023-01-02T04:13:05.114Z,95916.28
2023-01-02T04:15:32.697Z,95906.16
2023-01-02T04:18:04.441Z,95888.28
2023-01-02T04:20:31.585Z,95860.72
2023-01-02T04:22:59.354Z,95824.28
2023-01-02T04:25:26.167Z,95809.75
2023-01-02T04:27:57.614Z,95785.94
2023-01-02T04:30:23.824Z,95747.31
2023-01-02T04:32:50.052Z,95755.84
2023-01-02T04:35:17.359Z,95737.97
2023-01-02T04:37:43.639Z,95707.88
2023-01-02T04:40:09.989Z,95712.72
2023-01-02T04:42:36.212Z,95720.94
2023-01-02T04:45:02.433Z,95738.38
2023-01-02T04:47:28.665Z,95718.72
2023-01-02T04:49:54.875Z,95731.72
2023-01-02T04:52:21.083Z,95739.19
2023-01-02T04:54:47.284Z,95742.53
2023-01-02T04:57:13.560Z,95732.56
2023-01-02T04:59:39.765Z,95733.03
2023-01-02T05:02:06.040Z,95756.16
2023-01-02T05:04:32.331Z,95794.97
2023-01-02T05:06:58.549Z,95855.31
2023-01-02T05:09:24.773Z,95920.50
2023-01-02T05:11:50.991Z,95990.63
2023-01-02T05:14:17.198Z,96097.53
2023-01-02T05:16:43.419Z,96156.81
2023-01-02T05:19:09.628Z,96234.69
2023-01-02T05:21:35.863Z,96314.81
2023-01-02T05:24:02.519Z,96383.81
2023-01-02T05:26:28.812Z,96468.03
2023-01-02T05:28:55.021Z,96570.22
2023-01-02T05:31:21.286Z,96653.03
2023-01-02T05:33:57.339Z,96752.69
2023-01-02T05:36:23.735Z,96854.59
2023-01-02T05:38:50.090Z,96939.19
2023-01-02T05:41:16.336Z,96973.06
2023-01-02T05:43:42.574Z,96977.75
2023-01-02T05:46:15.573Z,96982.31
2023-01-02T05:48:42.043Z,97019.94
2023-01-02T05:51:08.831Z,97041.47
2023-01-02T05:53:35.118Z,97059.63
2023-01-02T05:56:08.370Z,97060.50
2023-01-02T05:58:35.053Z,97073.00
2023-01-02T06:01:08.297Z,97082.78
2023-01-02T06:03:34.572Z,97092.56
2023-01-02T06:06:04.702Z,97109.97
2023-01-02T06:08:30.924Z,97104.97
2023-01-02T06:10:57.130Z,97114.94
2023-01-02T06:13:23.345Z,97118.22
2023-01-02T06:15:49.554Z,97095.06
2023-01-02T06:18:15.768Z,97079.75
2023-01-02T06:20:41.970Z,97050.28
2023-01-02T06:23:08.190Z,97010.38
2023-01-02T06:25:34.434Z,96970.91
2023-01-02T06:28:00.669Z,96917.66
2023-01-02T06:30:26.869Z,96877.09
2023-01-02T06:32:53.089Z,96829.88
2023-01-02T06:35:19.287Z,96776.09
2023-01-02T06:37:45.489Z,96679.41
2023-01-02T06:40:11.708Z,96659.84
2023-01-02T06:42:37.925Z,96592.75
2023-01-02T06:45:04.447Z,96518.50
2023-01-02T06:47:30.658Z,96525.78
2023-01-02T06:49:56.861Z,96447.50
2023-01-02T06:52:23.098Z,96398.69
2023-01-02T06:54:49.311Z,96336.03
2023-01-02T06:57:15.515Z,96269.44
2023-01-02T06:59:41.723Z,96229.06
2023-01-02T07:02:09.404Z,96163.03
2023-01-02T07:04:35.657Z,96090.75
2023-01-02T07:07:01.862Z,96017.69
2023-01-02T07:09:28.096Z,95950.63
2023-01-02T07:11:54.303Z,95879.84
2023-01-02T07:14:20.551Z,95840.75
2023-01-02T07:16:46.824Z,95819.13
2023-01-02T07:19:13.101Z,95789.31
2023-01-02T07:21:39.301Z,95773.28
2023-01-02T07:24:05.659Z,95734.91
2023-01-02T07:26:31.856Z,95693.53
2023-01-02T07:28:58.060Z,95668.94
2023-01-02T07:31:24.277Z,95624.19
2023-01-02T07:33:50.519Z,95586.56
2023-01-02T07:36:17.695Z,95542.97
2023-01-02T07:38:44.122Z,95499.72
2023-01-02T07:41:14.043Z,95438.25
2023-01-02T07:43:40.251Z,95396.16
2023-01-02T07:46:06.515Z,95369.31
2023-01-02T07:48:32.760Z,95326.47
2023-01-02T07:50:59.546Z,95316.72
2023-01-02T07:53:25.749Z,95319.72
2023-01-02T07:55:55.339Z,95316.41
2023-01-02T07:58:21.547Z,95295.16
2023-01-02T08:00:47.833Z,95289.56
2023-01-02T08:03:14.060Z,95281.00
2023-01-02T08:05:40.301Z,95258.22
2023-01-02T08:08:06.595Z,95260.88
2023-01-02T08:10:32.833Z,95251.94
2023-01-02T08:12:59.040Z,95215.75
2023-01-02T08:15:25.371Z,95213.91
2023-01-02T08:17:51.588Z,95198.28
2023-01-02T08:20:17.810Z,95189.28
2023-01-02T08:22:44.008Z,95212.41
2023-01-02T08:25:10.911Z,95221.75
2023-01-02T08:27:37.120Z,95228.81
2023-01-02T08:30:03.443Z,95248.53
2023-01-02T08:32:29.663Z,95299.97
2023-01-02T08:34:55.881Z,95364.47
2023-01-02T08:37:22.092Z,95434.88
2023-01-02T08:39:48.306Z,95528.06
2023-01-02T08:42:14.512Z,95586.22
2023-01-02T08:44:40.738Z,95638.41
2023-01-02T08:47:06.943Z,95701.41
2023-01-02T08:49:33.147Z,95786.75
2023-01-02T08:51:59.387Z,95831.84
2023-01-02T08:54:25.611Z,95882.97
2023-01-02T08:56:51.829Z,95956.81
2023-01-02T08:59:18.035Z,96035.16
2023-01-02T09:01:44.415Z,96098.50
2023-01-02T09:04:12.869Z,96116.41
2023-01-02T09:06:39.447Z,96188.75
2023-01-02T09:09:11.023Z,96232.72
2023-01-02T09:11:37.951Z,96253.28
2023-01-02T09:14:04.241Z,96269.72
2023-01-02T09:16:30.459Z,96314.13
2023-01-02T09:18:57.244Z,96324.72
2023-01-02T09:21:23.451Z,96379.88
2023-01-02T09:23:49.646Z,96426.31
2023-01-02T09:26:15.961Z,96498.69
2023-01-02T09:28:42.207Z,96523.75
2023-01-02T09:31:12.286Z,96558.59
2023-01-02T09:33:39.133Z,96607.59
2023-01-02T09:36:05.859Z,96670.34
2023-01-02T09:38:32.071Z,96756.50
2023-01-02T09:40:59.097Z,96871.16
2023-01-02T09:43:33.269Z,96949.19
2023-01-02T09:45:59.724Z,96992.53
2023-01-02T09:48:25.958Z,97068.84
2023-01-02T09:50:52.212Z,97121.72
2023-01-02T09:53:18.418Z,97154.59
2023-01-02T09:55:55.542Z,97174.13
2023-01-02T09:58:27.102Z,97207.78
2023-01-02T10:00:53.310Z,97255.06
2023-01-02T10:03:29.250Z,97330.88
2023-01-02T10:06:07.827Z,97371.72
2023-01-02T10:08:40.140Z,97384.44
2023-01-02T10:11:09.211Z,97423.03
2023-01-02T10:16:42.926Z,97473.50
2023-01-02T10:19:14.391Z,97498.97
2023-01-02T10:21:40.604Z,97564.53
2023-01-02T10:24:07.928Z,97578.63
2023-01-02T10:26:35.577Z,97609.69
2023-01-02T10:29:07.844Z,97629.63
2023-01-02T10:31:35.643Z,97646.31
2023-01-02T10:34:02.474Z,97681.53
2023-01-02T10:36:28.769Z,97710.72
2023-01-02T10:38:58.681Z,97718.25
2023-01-02T10:41:25.194Z,97783.25
2023-01-02T10:43:52.940Z,97831.78
2023-01-02T10:46:19.159Z,97845.19
2023-01-02T10:48:51.844Z,97872.88
2023-01-02T10:51:18.458Z,97930.59
2023-01-02T10:53:44.679Z,97977.72
2023-01-02T10:56:15.629Z,98009.75
2023-01-02T10:58:48.482Z,98022.84
2023-01-02T11:01:18.936Z,98102.50
2023-01-02T11:03:45.649Z,98116.38
2023-01-02T11:06:30.123Z,98156.66
2023-01-02T11:09:01.358Z,98190.69
2023-01-02T11:11:28.479Z,98217.94
2023-01-02T11:13:54.817Z,98266.81
2023-01-02T11:16:21.503Z,98282.38
2023-01-02T11:18:50.806Z,98320.25
2023-01-02T11:21:23.809Z,98335.78
2023-01-02T11:23:50.018Z,98373.38
2023-01-02T11:26:25.345Z,98401.22
2023-01-02T11:28:51.799Z,98410.22
2023-01-02T11:31:18.091Z,98427.91
2023-01-02T11:33:44.891Z,98456.88
2023-01-02T11:36:11.070Z,98487.06
2023-01-02T11:38:42.030Z,98511.84
2023-01-02T11:41:19.245Z,98523.41
2023-01-02T11:43:46.814Z,98542.53
2023-01-02T11:46:36.375Z,98564.53
2023-01-02T11:49:06.397Z,98604.44
2023-01-02T11:51:36.662Z,98587.63
2023-01-02T11:54:03.473Z,98606.44
2023-01-02T11:56:36.127Z,98637.72
2023-01-02T11:59:03.900Z,98655.88
2023-01-02T12:01:32.789Z,98692.06
2023-01-02T12:03:59.234Z,98701.63
2023-01-02T12:06:40.837Z,98699.66
2023-01-02T12:09:11.044Z,98728.91
2023-01-02T12:11:37.189Z,98737.06
2023-01-02T12:14:13.806Z,98754.66
2023-01-02T12:16:49.268Z,98758.75
2023-01-02T12:19:19.280Z,98796.34
2023-01-02T12:22:04.194Z,98805.13
2023-01-02T12:24:37.563Z,98809.13
2023-01-02T12:27:09.971Z,98813.44
2023-01-02T12:29:47.913Z,98834.91
2023-01-02T12:32:30.347Z,98838.59
2023-01-02T12:34:56.509Z,98860.63
2023-01-02T12:37:41.299Z,98869.41
2023-01-02T12:40:19.458Z,98873.66
2023-01-02T12:42:54.308Z,98887.06
2023-01-02T12:45:20.454Z,98897.84
2023-01-02T12:47:58.772Z,98916.03
2023-01-02T12:50:27.703Z,98937.19
2023-01-02T12:53:00.616Z,98960.00
2023-01-02T12:55:45.642Z,98982.53
2023-01-02T12:58:22.315Z,99010.56
2023-01-02T13:00:53.496Z,99007.59
2023-01-02T13:03:38.695Z,99025.06
2023-01-02T13:06:08.158Z,99033.88
2023-01-02T13:09:02.453Z,99062.00
2023-01-02T13:11:30.121Z,99069.88
2023-01-02T13:13:56.441Z,99072.69
2023-01-02T13:16:25.514Z,99070.97
2023-01-02T13:18:59.995Z,99096.69
2023-01-02T13:21:33.191Z,99087.38
2023-01-02T13:23:59.393Z,99088.84
2023-01-02T13:26:26.245Z,99033.22
2023-01-02T13:28:52.408Z,98971.72
2023-01-02T13:31:45.362Z,98936.53
2023-01-02T13:34:08.835Z,98871.06
2023-01-02T13:36:42.106Z,98842.84
2023-01-02T13:39:15.955Z,98911.41
2023-01-02T13:41:57.512Z,98935.06
2023-01-02T13:44:32.265Z,98966.31
2023-01-02T13:47:03.530Z,99015.75
2023-01-02T13:49:30.898Z,99049.25
2023-01-02T13:51:57.713Z,99107.06
2023-01-02T13:54:23.915Z,99103.63
2023-01-02T13:57:08.796Z,99101.06
2023-01-02T13:59:42.865Z,99115.56
2023-01-02T14:02:16.307Z,99113.34
2023-01-02T14:04:42.685Z,99132.72
2023-01-02T14:07:27.175Z,99153.97
2023-01-02T14:10:08.697Z,99190.06
2023-01-02T14:12:41.277Z,99225.91
2023-01-02T14:15:14.264Z,99251.53
2023-01-02T14:17:49.687Z,99289.94
2023-01-02T14:20:18.972Z,99290.53
2023-01-02T14:23:04.384Z,99298.13
2023-01-02T14:25:30.682Z,99305.72
2023-01-02T14:27:57.407Z,99307.03
2023-01-02T14:30:30.857Z,99284.91
2023-01-02T14:32:57.130Z,99267.44
2023-01-02T14:35:24.748Z,99284.69
2023-01-02T14:37:51.556Z,99289.34
2023-01-02T14:40:23.880Z,99293.31
2023-01-02T14:43:00.422Z,99307.44
2023-01-02T14:45:26.679Z,99311.97
2023-01-02T14:47:54.116Z,99344.31
2023-01-02T14:50:23.859Z,99363.41
2023-01-02T14:53:16.558Z,99408.75
2023-01-02T14:55:42.758Z,99462.19
2023-01-02T14:58:17.796Z,99487.22
2023-01-02T15:00:44.334Z,99495.59
2023-01-02T15:03:17.823Z,99511.50
2023-01-02T15:05:45.571Z,99520.34
2023-01-02T15:08:11.803Z,99532.34
2023-01-02T15:10:54.075Z,99509.41
2023-01-02T15:13:21.442Z,99494.56
2023-01-02T15:15:48.301Z,99517.50
2023-01-02T15:18:14.512Z,99522.94
2023-01-02T15:20:40.719Z,99550.31
2023-01-02T15:23:06.949Z,99552.16
2023-01-02T15:25:39.680Z,99542.50
2023-01-02T15:28:06.334Z,99558.91
2023-01-02T15:30:33.385Z,99559.94
2023-01-02T15:32:59.596Z,99589.34
2023-01-02T15:35:28.100Z,99580.00
2023-01-02T15:37:54.312Z,99607.59
2023-01-02T15:40:23.558Z,99611.72
2023-01-02T15:42:49.772Z,99618.75
2023-01-02T15:45:16.249Z,99638.81
2023-01-02T15:47:45.430Z,99617.47
2023-01-02T15:50:18.647Z,99608.03
2023-01-02T15:52:44.924Z,99567.13
2023-01-02T15:55:15.263Z,99540.28
2023-01-02T15:57:45.362Z,99509.06
2023-01-02T16:00:30.821Z,99477.84
2023-01-02T16:02:57.149Z,99478.09
2023-01-02T16:05:23.393Z,99467.13
2023-01-02T16:07:50.383Z,99463.50
2023-01-02T16:10:17.948Z,99465.06
2023-01-02T16:12:48.580Z,99458.03
2023-01-02T16:15:15.878Z,99446.28
2023-01-02T16:17:42.082Z,99417.44
2023-01-02T16:20:14.364Z,99434.59
2023-01-02T16:22:42.509Z,99425.22
2023-01-02T16:25:12.475Z,99429.91
2023-01-02T16:27:52.183Z,99420.22
2023-01-02T16:30:28.416Z,99433.75
2023-01-02T16:32:54.718Z,99457.75
2023-01-02T16:35:24.526Z,99441.63
2023-01-02T16:37:57.571Z,99441.63
2023-01-02T16:41:01.806Z,99430.44
2023-01-02T16:43:10.268Z,99428.34
2023-01-02T16:45:37.234Z,99425.75
2023-01-02T16:48:03.783Z,99406.19
2023-01-02T16:50:29.993Z,99395.53
2023-01-02T16:52:57.128Z,99388.00
2023-01-02T16:55:23.329Z,99380.97
2023-01-02T16:57:49.762Z,99362.75
2023-01-02T17:00:16.141Z,99346.13
2023-01-02T17:02:42.409Z,99330.28
2023-01-02T17:05:22.838Z,99321.94
2023-01-02T17:07:49.056Z,99288.91
2023-01-02T17:10:15.258Z,99271.75
2023-01-02T17:12:43.531Z,99262.41
2023-01-02T17:15:11.866Z,99264.47
2023-01-02T17:17:38.061Z,99278.00
2023-01-02T17:20:04.493Z,99278.50
2023-01-02T17:22:30.700Z,99279.00
2023-01-02T17:24:56.915Z,99286.56
2023-01-02T17:27:23.115Z,99284.50
2023-01-02T17:29:49.321Z,99266.50
2023-01-02T17:32:15.564Z,99249.09
2023-01-02T17:34:41.829Z,99245.22
2023-01-02T17:37:08.028Z,99238.97
2023-01-02T17:39:34.230Z,99234.78
2023-01-02T17:42:00.450Z,99234.50
2023-01-02T17:44:26.654Z,99235.28
2023-01-02T17:49:39.410Z,99270.16
2023-01-02T17:52:05.759Z,99240.78
2023-01-02T17:54:31.977Z,99204.66
2023-01-02T17:56:58.189Z,99197.38
2023-01-02T17:59:24.489Z,99187.50
2023-01-02T18:01:50.859Z,99204.41
2023-01-02T18:04:17.228Z,99198.41
2023-01-02T18:06:43.447Z,99225.97
2023-01-02T18:09:09.663Z,99233.00
2023-01-02T18:11:35.868Z,99217.69
2023-01-02T18:14:02.379Z,99205.47
2023-01-02T18:16:29.881Z,99196.88
2023-01-02T18:18:56.117Z,99191.69
2023-01-02T18:21:22.706Z,99202.31
2023-01-02T18:23:49.386Z,99220.53
2023-01-02T18:26:16.568Z,99215.09
2023-01-02T18:29:09.376Z,99224.69
2023-01-02T18:31:40.141Z,99225.97
2023-01-02T18:34:12.103Z,99202.09
2023-01-02T18:36:58.301Z,99202.81
2023-01-02T18:39:24.631Z,99202.28
2023-01-02T18:41:50.839Z,99181.25
2023-01-02T18:44:24.022Z,99192.19
2023-01-02T18:47:03.175Z,99185.94
2023-01-02T18:49:32.114Z,99180.97
2023-01-02T18:52:10.502Z,99196.63
2023-01-02T18:54:37.043Z,99193.50
2023-01-02T18:57:19.817Z,99206.50
2023-01-02T18:59:46.410Z,99211.66
2023-01-02T19:02:30.729Z,99243.91
2023-01-02T19:04:56.986Z,99272.50
2023-01-02T19:07:27.158Z,99291.97
2023-01-02T19:09:57.065Z,99308.88
2023-01-02T19:12:24.536Z,99347.38
2023-01-02T19:14:50.755Z,99371.06
2023-01-02T19:17:18.875Z,99380.34
2023-01-02T19:19:45.121Z,99393.16
2023-01-02T19:22:16.054Z,99385.31
2023-01-02T19:24:42.269Z,99371.00
2023-01-02T19:27:12.557Z,99356.19
2023-01-02T19:29:38.772Z,99348.41
2023-01-02T19:32:14.081Z,99348.16
2023-01-02T19:34:52.052Z,99346.06
2023-01-02T19:37:34.703Z,99352.34
2023-01-02T19:40:01.691Z,99347.13
2023-01-02T19:42:28.822Z,99344.28
2023-01-02T19:44:58.796Z,99348.97
2023-01-02T19:47:25.826Z,99340.59
2023-01-02T19:49:52.047Z,99347.13
2023-01-02T19:52:18.570Z,99339.81
2023-01-02T19:54:44.790Z,99317.97
2023-01-02T19:57:11.199Z,99326.03
2023-01-02T19:59:43.522Z,99325.25
2023-01-02T20:02:10.374Z,99331.25
2023-01-02T20:04:36.686Z,99340.84
2023-01-02T20:07:02.905Z,99338.78
2023-01-02T20:09:29.111Z,99336.44
2023-01-02T20:11:55.330Z,99334.09
2023-01-02T20:14:21.571Z,99322.88
2023-01-02T20:16:47.790Z,99314.81
2023-01-02T20:19:13.987Z,99314.81
2023-01-02T20:21:40.204Z,99323.34
2023-01-02T20:24:06.541Z,99313.75
2023-01-02T20:26:32.763Z,99322.34
2023-01-02T20:28:58.969Z,99329.63
2023-01-02T20:31:25.236Z,99334.31
2023-01-02T20:33:51.484Z,99356.44
2023-01-02T20:36:17.696Z,99378.25
2023-01-02T20:38:44.309Z,99399.28
2023-01-02T20:41:10.525Z,99403.44
2023-01-02T20:43:36.728Z,99435.66
2023-01-02T20:46:02.987Z,99439.06
2023-01-02T20:48:29.207Z,99453.63
2023-01-02T20:50:55.415Z,99463.22
2023-01-02T20:53:21.632Z,99521.50
2023-01-02T20:55:48.047Z,99552.69
2023-01-02T20:58:14.297Z,99579.47
2023-01-02T21:00:40.581Z,99601.06
2023-01-02T21:03:07.005Z,99611.44
2023-01-02T21:05:33.323Z,99636.13
2023-01-02T21:07:59.549Z,99658.25
2023-01-02T21:10:25.755Z,99661.78
2023-01-02T21:12:51.958Z,99669.03
2023-01-02T21:15:18.159Z,99665.78
2023-01-02T21:17:44.375Z,99675.44
2023-01-02T21:20:10.618Z,99675.69
2023-01-02T21:22:36.829Z,99662.22
2023-01-02T21:25:03.123Z,99660.81
2023-01-02T21:27:29.348Z,99667.06
2023-01-02T21:29:55.549Z,99678.19
2023-01-02T21:32:21.768Z,99709.31
2023-01-02T21:34:47.974Z,99753.81
2023-01-02T21:37:14.202Z,99782.72
2023-01-02T21:39:40.416Z,99793.22
2023-01-02T21:42:06.639Z,99808.03
2023-01-02T21:44:32.867Z,99797.56
2023-01-02T21:46:59.257Z,99821.81
2023-01-02T21:49:25.560Z,99880.88
2023-01-02T21:51:51.769Z,99927.56
2023-01-02T21:54:17.972Z,99936.50
2023-01-02T21:56:44.177Z,99950.53
2023-01-02T21:59:10.399Z,99951.81
2023-01-02T22:01:36.811Z,99982.97
2023-01-02T22:04:03.155Z,99992.31
2023-01-02T22:06:29.358Z,100013.88
2023-01-02T22:08:55.581Z,100023.28
2023-01-02T22:11:21.784Z,100016.53
2023-01-02T22:13:47.990Z,100010.75
2023-01-02T22:16:14.235Z,100004.91
2023-01-02T22:18:40.488Z,100000.16
2023-01-02T22:21:06.682Z,100003.75
2023-01-02T22:23:32.899Z,100011.09
2023-01-02T22:25:59.102Z,100016.50
2023-01-02T22:28:25.314Z,100015.19
2023-01-02T22:30:51.516Z,100027.59
2023-01-02T22:33:17.753Z,100022.66
2023-01-02T22:35:44.020Z,100024.34
2023-01-02T22:38:10.230Z,100035.06
2023-01-02T22:40:36.436Z,100041.47
2023-01-02T22:43:04.255Z,100052.19
2023-01-02T22:45:34.155Z,100051.88
2023-01-02T22:48:00.695Z,100059.31
2023-01-02T22:50:27.783Z,100087.25
2023-01-02T22:52:53.988Z,100095.72
2023-01-02T22:55:20.708Z,100105.72
2023-01-02T22:57:51.549Z,100091.09
2023-01-02T23:00:18.144Z,100092.22
2023-01-02T23:02:44.347Z,100101.31
2023-01-02T23:05:17.176Z,100096.69
2023-01-02T23:07:43.577Z,100090.53
2023-01-02T23:10:09.834Z,100101.69
2023-01-02T23:12:36.045Z,100102.03
2023-01-02T23:15:02.269Z,100102.66
2023-01-02T23:17:28.467Z,100107.78
2023-01-02T23:19:54.676Z,100109.34
2023-01-02T23:22:20.871Z,100103.13
2023-01-02T23:24:47.069Z,100113.19
2023-01-02T23:27:13.277Z,100105.94
2023-01-02T23:29:39.581Z,100115.69
2023-01-02T23:32:06.059Z,100149.50
2023-01-02T23:34:32.281Z,100152.31
2023-01-02T23:36:58.909Z,100145.22
2023-01-02T23:39:25.881Z,100146.22
2023-01-02T23:41:52.176Z,100140.91
2023-01-02T23:44:18.451Z,100150.84
2023-01-02T23:46:44.671Z,100145.53
2023-01-02T23:49:10.921Z,100146.34
2023-01-02T23:51:37.516Z,100146.22
2023-01-02T23:54:03.845Z,100170.91
2023-01-02T23:56:30.796Z,100196.06
2023-01-02T23:58:57.395Z,100190.66
